Time;durP1;ratioP1;P1;durP2;ratioP2;P2;SDS_P1;SDS_P2;PMS_P1;PMS_P2;Temp;Humidity;BMP_temperature;BMP_pressure;BME280_temperature;BME280_humidity;BME280_pressure;Samples;Min_cycle;Max_cycle;Signal;HPM_P1;HPM_P2
2021/04/18 00:00:56;;;;;;;13.02;11.82;;;;;;;3.54;64.82;95820.56;4955823;28;20026;-46
2021/04/18 00:03:21;;;;;;;13.98;12.57;;;;;;;3.51;65.04;95818.97;4952713;28;20831;-45
2021/04/18 00:05:47;;;;;;;12.63;11.63;;;;;;;3.44;65.51;95813.31;4954610;28;20082;-48
2021/04/18 00:08:13;;;;;;;12.85;11.70;;;;;;;3.44;65.01;95817.69;4954249;28;20034;-45
2021/04/18 00:10:39;;;;;;;13.05;11.85;;;;;;;3.41;66.51;95818.69;4956475;28;20031;-47
2021/04/18 00:13:07;;;;;;;12.32;11.30;;;;;;;3.42;65.75;95816.94;4957268;28;20098;-46
2021/04/18 00:15:33;;;;;;;12.60;11.55;;;;;;;3.43;65.61;95813.41;4952284;28;20027;-47
2021/04/18 00:17:59;;;;;;;12.75;11.75;;;;;;;3.43;66.53;95814.25;4955232;28;20051;-46
2021/04/18 00:20:24;;;;;;;11.80;10.88;;;;;;;3.32;67.19;95805.44;4951276;28;20027;-46
2021/04/18 00:22:50;;;;;;;12.40;11.30;;;;;;;3.33;66.75;95804.50;4951539;28;20030;-46
2021/04/18 00:25:18;;;;;;;13.57;12.38;;;;;;;3.24;67.52;95803.31;4956806;28;20031;-48
2021/04/18 00:27:44;;;;;;;12.85;11.75;;;;;;;3.13;66.88;95801.38;4955334;28;20042;-47
2021/04/18 00:30:16;;;;;;;14.07;12.75;;;;;;;3.13;67.35;95796.16;4955959;28;20090;-47
2021/04/18 00:32:42;;;;;;;14.18;12.82;;;;;;;3.17;67.47;95796.78;4956177;28;20357;-46
2021/04/18 00:35:09;;;;;;;13.25;11.95;;;;;;;3.10;66.86;95797.16;4952181;28;20035;-47
2021/04/18 00:37:35;;;;;;;14.35;13.02;;;;;;;3.09;67.29;95790.28;4949940;28;20023;-45
2021/04/18 00:40:08;;;;;;;14.43;13.18;;;;;;;3.10;66.87;95802.38;4956495;28;20100;-46
2021/04/18 00:42:34;;;;;;;14.55;13.30;;;;;;;3.19;65.99;95800.97;4953966;28;20396;-45
2021/04/18 00:44:59;;;;;;;15.38;14.10;;;;;;;3.21;66.46;95804.31;4955777;28;20031;-47
2021/04/18 00:47:27;;;;;;;13.98;12.68;;;;;;;3.20;66.72;95809.59;4955070;28;20027;-46
2021/04/18 00:49:52;;;;;;;15.23;13.88;;;;;;;3.15;66.93;95799.50;4957126;28;20027;-46
2021/04/18 00:52:18;;;;;;;15.75;14.20;;;;;;;3.14;66.18;95803.84;4955929;28;20054;-46
2021/04/18 00:54:43;;;;;;;14.93;13.05;;;;;;;3.15;67.25;95802.09;4952376;28;20062;-45
2021/04/18 00:57:09;;;;;;;16.75;15.15;;;;;;;2.98;67.26;95808.31;4957739;28;20016;-46
2021/04/18 00:59:35;;;;;;;16.52;14.98;;;;;;;2.94;67.15;95804.22;4954208;28;20086;-45
2021/04/18 01:02:01;;;;;;;15.70;14.35;;;;;;;2.93;67.02;95798.19;4952904;28;20085;-45
2021/04/18 01:04:27;;;;;;;14.65;13.25;;;;;;;2.91;67.27;95799.19;4956447;28;20106;-45
2021/04/18 01:06:52;;;;;;;15.00;13.68;;;;;;;2.90;67.52;95801.00;4954043;28;20070;-47
2021/04/18 01:09:19;;;;;;;16.27;13.40;;;;;;;2.81;68.64;95799.78;4955695;28;20411;-46
2021/04/18 01:11:44;;;;;;;15.77;14.35;;;;;;;2.67;69.14;95803.19;4955170;28;20503;-49
2021/04/18 01:14:10;;;;;;;16.90;15.10;;;;;;;2.53;69.61;95805.75;4955061;28;20169;-47
2021/04/18 01:16:35;;;;;;;16.65;15.15;;;;;;;2.31;70.94;95808.75;4954395;28;20412;-47
2021/04/18 01:19:01;;;;;;;16.40;15.00;;;;;;;2.35;70.31;95811.09;4954517;28;20042;-49
2021/04/18 01:21:26;;;;;;;16.88;15.35;;;;;;;2.44;69.71;95814.91;4955542;28;20077;-47
2021/04/18 01:23:53;;;;;;;17.00;15.20;;;;;;;2.31;69.79;95808.75;4954920;28;20105;-46
2021/04/18 01:26:19;;;;;;;17.92;16.33;;;;;;;2.23;70.32;95812.63;4954759;28;20027;-48
2021/04/18 01:28:45;;;;;;;19.73;17.85;;;;;;;2.09;71.83;95807.38;4953829;28;20023;-47
2021/04/18 01:31:10;;;;;;;18.08;16.52;;;;;;;2.11;71.45;95808.97;4955261;28;20070;-48
2021/04/18 01:33:36;;;;;;;19.80;17.90;;;;;;;2.07;71.17;95817.00;4954361;28;20023;-47
2021/04/18 01:36:04;;;;;;;18.00;16.40;;;;;;;2.04;71.79;95812.84;4955477;28;20039;-48
2021/04/18 01:38:31;;;;;;;17.60;16.02;;;;;;;2.02;71.05;95816.44;4957561;28;20504;-47
2021/04/18 01:40:58;;;;;;;16.55;15.10;;;;;;;2.04;71.06;95817.19;4957379;28;20052;-48
2021/04/18 01:43:24;;;;;;;17.92;16.23;;;;;;;1.98;71.72;95814.03;4959145;28;20035;-49
2021/04/18 01:45:51;;;;;;;17.85;16.25;;;;;;;1.94;71.81;95807.34;4955354;28;20082;-48
2021/04/18 01:48:17;;;;;;;17.92;16.05;;;;;;;1.78;73.14;95814.28;4959732;28;20035;-48
2021/04/18 01:50:46;;;;;;;19.00;17.20;;;;;;;1.69;72.41;95808.69;4954892;28;20401;-49
2021/04/18 01:53:11;;;;;;;18.77;16.88;;;;;;;1.65;72.66;95814.97;4957485;28;20037;-50
2021/04/18 01:55:37;;;;;;;19.52;17.55;;;;;;;1.62;72.47;95807.34;4959105;28;20054;-48
2021/04/18 01:58:06;;;;;;;18.17;16.48;;;;;;;1.67;72.11;95809.69;4958751;28;20396;-47
2021/04/18 02:00:32;;;;;;;18.77;16.92;;;;;;;1.67;73.31;95817.47;4958233;28;20031;-48
2021/04/18 02:02:58;;;;;;;19.17;17.48;;;;;;;1.53;73.71;95813.88;4958325;28;20503;-50
2021/04/18 02:05:25;;;;;;;20.80;18.73;;;;;;;1.51;73.92;95815.72;4957846;28;20035;-46
2021/04/18 02:07:51;;;;;;;17.02;15.50;;;;;;;1.50;74.34;95815.81;4955581;28;20050;-46
2021/04/18 02:10:16;;;;;;;18.00;16.40;;;;;;;1.43;74.77;95813.53;4957386;28;20027;-50
2021/04/18 02:12:42;;;;;;;17.15;15.50;;;;;;;1.41;74.18;95812.78;4958748;28;20058;-50
2021/04/18 02:15:09;;;;;;;17.33;15.88;;;;;;;1.38;74.99;95818.13;4958947;28;20039;-48
2021/04/18 02:17:36;;;;;;;16.55;14.90;;;;;;;1.40;73.63;95816.28;4955656;28;20086;-48
2021/04/18 02:20:02;;;;;;;16.63;14.93;;;;;;;1.45;73.13;95810.88;4958285;28;20086;-47
2021/04/18 02:22:27;;;;;;;15.57;14.07;;;;;;;1.51;73.26;95817.50;4957307;28;20510;-46
2021/04/18 02:24:53;;;;;;;16.67;15.30;;;;;;;1.47;73.16;95818.56;4950915;28;20032;-47
2021/04/18 02:27:19;;;;;;;16.88;15.43;;;;;;;1.32;74.14;95820.22;4955030;28;20048;-47
2021/04/18 02:29:44;;;;;;;16.02;14.55;;;;;;;1.29;73.75;95822.06;4959557;28;20038;-47
2021/04/18 02:32:10;;;;;;;16.92;15.23;;;;;;;1.26;74.57;95818.81;4957538;28;20068;-48
2021/04/18 02:34:35;;;;;;;16.88;15.48;;;;;;;1.17;75.23;95814.94;4957400;28;20046;-47
2021/04/18 02:37:01;;;;;;;16.63;15.00;;;;;;;1.28;73.96;95819.56;4954920;28;20043;-46
2021/04/18 02:39:26;;;;;;;16.55;15.02;;;;;;;1.30;73.50;95825.50;4957264;28;20077;-51
2021/04/18 02:41:52;;;;;;;17.02;15.38;;;;;;;1.28;73.81;95829.94;4958044;28;20464;-47
2021/04/18 02:44:18;;;;;;;14.98;13.70;;;;;;;1.22;73.97;95830.28;4956820;28;20031;-48
2021/04/18 02:46:44;;;;;;;15.90;14.50;;;;;;;1.17;74.54;95824.47;4951877;28;20403;-47
2021/04/18 02:49:09;;;;;;;15.55;14.15;;;;;;;1.13;74.66;95836.78;4955727;28;20145;-48
2021/04/18 02:51:36;;;;;;;16.90;15.13;;;;;;;1.06;74.70;95827.63;4955414;28;20090;-47
2021/04/18 02:54:02;;;;;;;16.65;15.25;;;;;;;1.08;74.74;95828.38;4954749;28;20039;-49
2021/04/18 02:56:28;;;;;;;17.67;16.02;;;;;;;1.06;75.15;95831.06;4958199;28;20513;-47
2021/04/18 02:58:54;;;;;;;17.95;15.98;;;;;;;1.06;74.77;95825.88;4959537;28;20027;-48
2021/04/18 03:01:20;;;;;;;18.20;16.30;;;;;;;1.03;75.34;95833.81;4951689;28;20035;-46
2021/04/18 03:03:45;;;;;;;18.20;16.30;;;;;;;1.05;74.82;95834.56;4951843;28;20074;-48
2021/04/18 03:06:12;;;;;;;16.75;15.23;;;;;;;1.06;75.08;95835.41;4958729;28;20094;-47
2021/04/18 03:08:37;;;;;;;17.35;15.57;;;;;;;1.02;75.53;95833.88;4957539;28;20098;-49
2021/04/18 03:11:03;;;;;;;20.55;18.45;;;;;;;0.93;76.06;95840.38;4955094;28;20495;-48
2021/04/18 03:13:29;;;;;;;23.38;20.10;;;;;;;0.83;76.78;95840.88;4956673;28;20087;-46
2021/04/18 03:15:54;;;;;;;23.13;20.73;;;;;;;0.73;76.96;95839.66;4957338;28;20062;-48
2021/04/18 03:18:20;;;;;;;22.55;18.90;;;;;;;0.77;76.64;95840.34;4957551;28;20066;-49
2021/04/18 03:20:46;;;;;;;19.73;17.80;;;;;;;0.79;76.50;95839.34;4956906;28;20023;-48
2021/04/18 03:23:11;;;;;;;20.38;18.27;;;;;;;0.83;75.81;95843.47;4956556;28;20535;-46
2021/04/18 03:25:37;;;;;;;20.10;18.05;;;;;;;0.82;76.42;95836.59;4957505;28;20023;-48
2021/04/18 03:28:04;;;;;;;18.63;16.52;;;;;;;0.85;75.92;95843.38;4955473;28;20038;-46
2021/04/18 03:30:32;;;;;;;18.92;17.15;;;;;;;0.83;76.61;95850.38;4956020;28;20027;-46
2021/04/18 03:32:58;;;;;;;19.48;17.48;;;;;;;0.89;76.04;95844.06;4955610;28;20039;-46
2021/04/18 03:35:24;;;;;;;20.27;18.35;;;;;;;0.87;77.23;95840.72;4955453;28;20510;-45
2021/04/18 03:37:49;;;;;;;19.42;17.73;;;;;;;0.85;77.13;95844.22;4956984;28;20035;-45
2021/04/18 03:40:15;;;;;;;18.75;16.92;;;;;;;0.96;76.54;95841.06;4958249;28;20031;-46
2021/04/18 03:42:41;;;;;;;18.80;16.88;;;;;;;1.06;76.18;95838.84;4955968;28;20067;-45
2021/04/18 03:45:07;;;;;;;21.42;16.52;;;;;;;1.18;75.67;95839.09;4952500;28;20028;-46
2021/04/18 03:47:33;;;;;;;35.15;18.58;;;;;;;1.14;76.67;95836.69;4954081;28;20516;-46
2021/04/18 03:49:59;;;;;;;19.33;17.52;;;;;;;1.09;76.65;95833.50;4956104;28;20086;-47
2021/04/18 03:52:25;;;;;;;19.60;17.58;;;;;;;1.16;76.78;95836.59;4957241;28;20054;-46
2021/04/18 03:54:50;;;;;;;18.25;16.63;;;;;;;1.21;76.48;95836.34;4957275;28;20125;-46
2021/04/18 03:57:16;;;;;;;18.02;16.23;;;;;;;1.31;75.77;95836.69;4954670;28;20039;-46
2021/04/18 03:59:42;;;;;;;18.42;16.65;;;;;;;1.40;75.33;95834.44;4956676;28;20110;-46
2021/04/18 04:02:08;;;;;;;17.65;15.88;;;;;;;1.46;74.99;95832.47;4956913;28;20035;-46
2021/04/18 04:04:33;;;;;;;16.92;15.50;;;;;;;1.48;75.27;95833.22;4952201;28;20043;-46
2021/04/18 04:06:59;;;;;;;17.33;15.73;;;;;;;1.49;76.07;95840.09;4957471;28;20403;-46
2021/04/18 04:09:24;;;;;;;17.67;15.90;;;;;;;1.45;76.05;95833.41;4956317;28;20019;-46
2021/04/18 04:11:50;;;;;;;17.92;16.38;;;;;;;1.46;75.79;95832.47;4957109;28;20031;-47
2021/04/18 04:14:16;;;;;;;17.73;15.80;;;;;;;1.46;75.37;95832.47;4955635;28;20106;-46
2021/04/18 04:16:41;;;;;;;16.63;15.15;;;;;;;1.46;75.87;95833.28;4957243;28;20019;-46
2021/04/18 04:19:07;;;;;;;17.38;15.57;;;;;;;1.44;75.68;95832.53;4957749;28;20079;-46
2021/04/18 04:21:32;;;;;;;17.75;16.17;;;;;;;1.40;75.93;95834.44;4955117;28;20038;-45
2021/04/18 04:23:58;;;;;;;16.92;15.43;;;;;;;1.38;76.22;95832.88;4954892;28;20023;-46
2021/04/18 04:26:24;;;;;;;17.05;15.45;;;;;;;1.32;76.31;95839.22;4954190;28;20019;-48
2021/04/18 04:28:49;;;;;;;16.83;15.32;;;;;;;1.32;76.57;95847.00;4956340;28;20031;-48
2021/04/18 04:31:15;;;;;;;17.77;15.82;;;;;;;1.33;76.68;95845.25;4954981;28;20034;-47
2021/04/18 04:33:41;;;;;;;17.60;15.90;;;;;;;1.32;76.89;95846.16;4953950;28;20034;-46
2021/04/18 04:36:07;;;;;;;18.38;16.67;;;;;;;1.31;77.13;95853.13;4956488;28;20039;-47
2021/04/18 04:38:33;;;;;;;17.25;15.55;;;;;;;1.35;76.77;95846.84;4954301;28;20034;-46
2021/04/18 04:40:59;;;;;;;16.20;14.70;;;;;;;1.43;76.25;95849.84;4952228;28;20039;-46
2021/04/18 04:43:25;;;;;;;15.90;14.63;;;;;;;1.49;76.45;95850.47;4954496;28;20035;-45
2021/04/18 04:45:51;;;;;;;16.13;14.73;;;;;;;1.53;76.43;95854.56;4955844;28;20035;-47
2021/04/18 04:48:17;;;;;;;16.75;15.30;;;;;;;1.54;76.40;95849.28;4953409;28;20038;-46
2021/04/18 04:50:43;;;;;;;17.55;15.95;;;;;;;1.53;76.23;95854.56;4956056;28;20047;-46
2021/04/18 04:53:08;;;;;;;18.05;16.38;;;;;;;1.53;77.13;95855.38;4949515;28;20023;-47
2021/04/18 04:55:34;;;;;;;17.67;16.02;;;;;;;1.59;77.18;95866.38;4955703;28;20027;-46
2021/04/18 04:57:59;;;;;;;16.65;15.05;;;;;;;1.64;77.10;95861.78;4960104;28;20023;-46
2021/04/18 05:00:25;;;;;;;16.80;15.40;;;;;;;1.68;77.20;95858.94;4953352;28;20041;-46
2021/04/18 05:02:51;;;;;;;18.70;17.02;;;;;;;1.64;77.67;95867.78;4955422;28;20066;-49
2021/04/18 05:05:16;;;;;;;17.45;15.75;;;;;;;1.67;77.41;95867.66;4955294;28;20016;-45
2021/04/18 05:07:42;;;;;;;16.83;15.43;;;;;;;1.78;76.84;95868.81;4955986;28;20019;-45
2021/04/18 05:10:08;;;;;;;19.15;17.40;;;;;;;1.82;77.61;95878.09;4953138;28;20039;-47
2021/04/18 05:12:33;;;;;;;17.42;15.73;;;;;;;1.88;77.80;95871.75;4950602;28;20059;-46
2021/04/18 05:14:59;;;;;;;17.55;16.05;;;;;;;2.00;75.73;95874.50;4960677;28;20027;-47
2021/04/18 05:17:25;;;;;;;16.55;15.13;;;;;;;2.10;76.11;95881.78;4957828;28;20058;-46
2021/04/18 05:19:51;;;;;;;20.52;18.70;;;;;;;2.17;76.58;95882.28;4960478;28;20031;-45
2021/04/18 05:22:17;;;;;;;23.77;21.70;;;;;;;2.24;76.28;95883.63;4958943;28;20452;-46
2021/04/18 05:24:42;;;;;;;21.27;19.35;;;;;;;2.27;76.16;95883.44;4951228;28;20078;-46
2021/04/18 05:27:09;;;;;;;21.30;18.80;;;;;;;2.29;75.69;95892.00;4956126;28;20456;-47
2021/04/18 05:29:35;;;;;;;19.80;18.10;;;;;;;2.34;76.18;95883.94;4962164;28;20026;-46
2021/04/18 05:32:00;;;;;;;19.90;18.13;;;;;;;2.38;76.46;95888.03;4960059;28;20095;-47
2021/04/18 05:34:26;;;;;;;19.48;17.73;;;;;;;2.47;75.42;95889.28;4961028;28;20062;-46
2021/04/18 05:36:51;;;;;;;17.70;16.17;;;;;;;2.52;75.24;95890.69;4955694;28;20031;-46
2021/04/18 05:39:17;;;;;;;18.70;17.00;;;;;;;2.56;74.93;95891.34;4956693;28;20026;-46
2021/04/18 05:41:42;;;;;;;19.50;17.90;;;;;;;2.56;74.97;95897.41;4956917;28;20119;-45
2021/04/18 05:44:14;;;;;;;17.98;16.42;;;;;;;2.63;75.67;95897.03;4960688;28;20027;-46
2021/04/18 05:46:41;;;;;;;18.52;16.83;;;;;;;2.70;75.49;95888.81;4958911;28;20078;-46
2021/04/18 05:49:07;;;;;;;19.67;17.98;;;;;;;2.81;74.48;95890.78;4956986;28;20038;-45
2021/04/18 05:51:33;;;;;;;18.60;16.90;;;;;;;2.88;73.96;95887.81;4960106;28;20043;-46
2021/04/18 05:53:59;;;;;;;18.15;16.55;;;;;;;2.93;74.51;95891.81;4960329;28;20035;-47
2021/04/18 05:56:24;;;;;;;17.73;16.17;;;;;;;2.99;72.87;95890.63;4958915;28;20023;-46
2021/04/18 05:58:50;;;;;;;16.77;15.38;;;;;;;3.07;72.08;95893.63;4958917;28;20054;-46
2021/04/18 06:01:21;;;;;;;17.55;15.85;;;;;;;3.15;71.59;95898.38;4961036;28;20023;-46
2021/04/18 06:03:46;;;;;;;17.77;16.02;;;;;;;3.21;71.59;95898.00;4960041;28;20090;-45
2021/04/18 06:06:12;;;;;;;17.33;15.35;;;;;;;3.24;71.03;95895.19;4962056;28;20022;-47
2021/04/18 06:08:37;;;;;;;18.42;16.70;;;;;;;3.28;69.40;95893.25;4959902;28;20019;-46
2021/04/18 06:11:03;;;;;;;17.48;15.93;;;;;;;3.46;68.77;95893.09;4960003;28;20031;-46
2021/04/18 06:13:28;;;;;;;18.13;16.60;;;;;;;3.50;68.80;95897.19;4957722;28;20027;-46
2021/04/18 06:15:54;;;;;;;18.00;16.40;;;;;;;3.52;68.32;95893.53;4955816;28;20035;-46
2021/04/18 06:18:20;;;;;;;18.02;16.33;;;;;;;3.58;67.49;95894.94;4960862;28;20027;-46
2021/04/18 06:20:45;;;;;;;17.70;15.85;;;;;;;3.60;67.63;95895.66;4961236;28;20026;-46
2021/04/18 06:23:11;;;;;;;18.48;16.77;;;;;;;3.61;66.95;95892.13;4961656;28;21016;-47
2021/04/18 06:25:36;;;;;;;17.95;16.35;;;;;;;3.71;67.34;95892.41;4956283;28;20439;-49
2021/04/18 06:28:02;;;;;;;18.70;17.08;;;;;;;3.71;66.80;95892.41;4956828;28;20019;-46
2021/04/18 06:30:28;;;;;;;16.63;15.13;;;;;;;3.77;67.09;95901.63;4959481;28;20019;-46
2021/04/18 06:32:53;;;;;;;18.30;16.55;;;;;;;3.75;67.29;95896.50;4958313;28;20023;-47
2021/04/18 06:35:19;;;;;;;16.90;15.27;;;;;;;3.76;67.08;95894.72;4957833;28;20027;-46
2021/04/18 06:37:45;;;;;;;16.27;14.88;;;;;;;3.71;66.85;95893.25;4957560;28;20039;-46
2021/04/18 06:40:11;;;;;;;16.33;14.85;;;;;;;3.75;66.49;95898.28;4959250;28;20541;-45
2021/04/18 06:42:38;;;;;;;16.48;14.77;;;;;;;3.79;66.54;95902.34;4952159;28;20028;-46
2021/04/18 06:45:08;;;;;;;18.35;16.27;;;;;;;3.82;66.50;95907.38;4956279;28;20031;-46
2021/04/18 06:47:38;;;;;;;16.00;14.65;;;;;;;3.85;66.41;95907.16;4957588;28;20047;-46
2021/04/18 06:50:06;;;;;;;16.60;15.20;;;;;;;3.81;66.40;95906.53;4955273;28;20506;-45
2021/04/18 06:52:34;;;;;;;17.08;15.60;;;;;;;3.84;66.27;95910.72;4957047;28;20027;-45
2021/04/18 06:54:59;;;;;;;16.30;14.85;;;;;;;3.86;65.26;95914.91;4959601;28;20495;-45
2021/04/18 06:57:25;;;;;;;16.27;14.90;;;;;;;4.07;64.78;95913.66;4955207;28;20023;-47
2021/04/18 06:59:51;;;;;;;15.32;14.02;;;;;;;4.15;64.51;95909.63;4956938;28;20035;-46
2021/04/18 07:02:31;;;;;;;15.45;14.15;;;;;;;4.18;63.86;95913.81;4957635;28;20023;-46
2021/04/18 07:04:57;;;;;;;16.13;14.82;;;;;;;4.25;63.85;95914.28;4956724;28;20026;-46
2021/04/18 07:07:35;;;;;;;19.90;18.13;;;;;;;4.38;64.21;95909.94;4954566;28;20503;-48
2021/04/18 07:10:01;;;;;;;15.00;13.70;;;;;;;4.51;62.85;95909.16;4955938;28;20027;-45
2021/04/18 07:12:30;;;;;;;14.85;13.45;;;;;;;4.62;63.77;95908.47;4957277;28;20407;-45
2021/04/18 07:14:57;;;;;;;15.68;14.07;;;;;;;4.86;63.13;95900.78;4956588;28;20031;-47
2021/04/18 07:17:23;;;;;;;15.70;14.35;;;;;;;5.16;62.50;95900.50;4956599;28;20081;-46
2021/04/18 07:20:08;;;;;;;15.07;13.65;;;;;;;6.15;60.81;95894.69;4957453;28;20650;-45
2021/04/18 07:22:34;;;;;;;15.27;13.90;;;;;;;7.52;58.17;95887.28;4955650;28;20066;-46
2021/04/18 07:24:59;;;;;;;14.02;12.75;;;;;;;8.50;54.22;95885.75;4955301;28;20036;-45
2021/04/18 07:27:47;;;;;;;14.30;12.80;;;;;;;9.00;52.98;95887.81;4951354;28;20814;-47
2021/04/18 07:30:16;;;;;;;13.90;12.75;;;;;;;9.52;50.31;95883.56;4956089;28;20027;-46
2021/04/18 07:32:43;;;;;;;14.63;13.23;;;;;;;10.00;47.90;95882.13;4955124;28;20049;-46
2021/04/18 07:35:30;;;;;;;15.93;14.43;;;;;;;10.35;47.66;95880.00;4954884;28;20031;-45
2021/04/18 07:38:22;;;;;;;15.25;13.38;;;;;;;10.74;46.30;95880.06;4955135;28;20042;-47
2021/04/18 07:40:50;;;;;;;14.73;13.38;;;;;;;10.91;45.70;95875.91;4954323;28;20035;-46
2021/04/18 07:43:18;;;;;;;17.83;13.48;;;;;;;11.22;44.46;95880.16;4955627;28;20046;-46
2021/04/18 07:45:44;;;;;;;13.57;12.38;;;;;;;11.38;42.79;95869.84;4955061;28;20031;-45
2021/04/18 07:48:12;;;;;;;14.35;13.15;;;;;;;11.44;44.40;95871.94;4954419;28;20460;-46
2021/04/18 07:50:38;;;;;;;14.90;13.50;;;;;;;11.87;43.86;95869.69;4954011;28;20113;-45
2021/04/18 07:53:06;;;;;;;15.60;14.35;;;;;;;12.16;43.98;95865.28;4955069;28;20028;-47
2021/04/18 07:55:32;;;;;;;19.33;14.27;;;;;;;12.78;40.46;95869.03;4954935;28;20027;-46
2021/04/18 07:57:57;;;;;;;15.63;14.43;;;;;;;12.82;39.03;95868.59;4956738;28;20062;-47
2021/04/18 08:00:23;;;;;;;15.50;14.10;;;;;;;12.97;38.44;95866.22;4957001;28;20027;-46
2021/04/18 08:02:50;;;;;;;15.52;14.13;;;;;;;13.04;38.94;95855.88;4956305;28;20027;-47
2021/04/18 08:05:18;;;;;;;15.57;14.18;;;;;;;13.48;37.05;95854.25;4957323;28;20193;-48
2021/04/18 08:08:08;;;;;;;14.55;13.32;;;;;;;13.29;37.10;95856.06;4955803;28;20067;-45
2021/04/18 08:10:40;;;;;;;14.82;13.63;;;;;;;13.46;37.02;95857.88;4956277;28;20023;-46
2021/04/18 08:13:10;;;;;;;14.98;13.65;;;;;;;13.41;36.59;95857.47;4956702;28;20102;-47
2021/04/18 08:15:41;;;;;;;14.40;13.00;;;;;;;13.46;36.64;95854.38;4954255;28;20058;-45
2021/04/18 08:18:15;;;;;;;14.63;13.43;;;;;;;13.43;35.93;95854.69;4954851;28;20440;-46
2021/04/18 08:20:46;;;;;;;15.23;14.00;;;;;;;13.68;34.36;95853.03;4952062;28;20399;-46
2021/04/18 08:23:14;;;;;;;14.52;13.23;;;;;;;13.55;34.58;95861.41;4952926;28;20442;-47
2021/04/18 08:26:04;;;;;;;14.30;13.20;;;;;;;13.17;35.93;95860.78;4955958;28;20115;-45
2021/04/18 08:28:52;;;;;;;15.13;13.73;;;;;;;13.60;35.47;95855.66;4955550;28;20037;-46
2021/04/18 08:31:29;;;;;;;15.40;14.15;;;;;;;14.18;34.13;95858.53;4955410;28;20042;-47
2021/04/18 08:33:57;;;;;;;14.75;13.43;;;;;;;14.14;35.80;95850.06;4953248;28;20162;-47
2021/04/18 08:36:31;;;;;;;15.18;14.00;;;;;;;13.67;33.11;95850.53;4953557;28;20039;-46
2021/04/18 08:38:59;;;;;;;14.57;13.38;;;;;;;13.17;34.08;95848.41;4952464;28;20122;-48
2021/04/18 08:41:44;;;;;;;14.68;13.50;;;;;;;12.84;35.72;95853.41;4960724;28;20046;-49
2021/04/18 08:44:18;;;;;;;15.45;13.93;;;;;;;13.38;35.60;95857.78;4955497;28;20019;-49
2021/04/18 08:46:45;;;;;;;15.43;13.88;;;;;;;14.00;35.64;95854.16;4952419;28;20031;-46
2021/04/18 08:49:12;;;;;;;15.55;13.95;;;;;;;14.57;34.31;95860.63;4953814;28;20028;-48
2021/04/18 08:51:39;;;;;;;14.70;13.50;;;;;;;14.72;33.35;95857.38;4956030;28;20079;-47
2021/04/18 08:54:05;;;;;;;15.32;13.35;;;;;;;14.58;34.57;95854.34;4952135;28;20035;-46
2021/04/18 08:56:50;;;;;;;13.55;12.48;;;;;;;15.18;33.53;95856.88;4954013;28;20031;-46
2021/04/18 08:59:18;;;;;;;13.90;12.77;;;;;;;15.40;32.95;95857.19;4949518;28;20032;-48
2021/04/18 09:02:00;;;;;;;15.00;13.52;;;;;;;15.50;31.82;95854.34;4951858;28;20459;-47
2021/04/18 09:04:28;;;;;;;15.02;13.50;;;;;;;15.27;32.82;95855.03;4956753;28;20030;-50
2021/04/18 09:06:55;;;;;;;14.27;13.10;;;;;;;15.18;31.37;95857.72;4955940;28;20034;-48
2021/04/18 09:09:21;;;;;;;15.02;13.82;;;;;;;14.79;33.29;95853.06;4954449;28;20031;-48
2021/04/18 09:11:47;;;;;;;14.55;13.30;;;;;;;15.04;33.71;95850.41;4955775;28;20094;-47
2021/04/18 09:14:31;;;;;;;19.10;12.88;;;;;;;14.85;32.62;95855.06;4954629;28;20488;-49
2021/04/18 09:17:07;;;;;;;14.73;13.52;;;;;;;15.80;31.61;95851.94;4954707;28;20027;-47
2021/04/18 09:19:33;;;;;;;14.57;13.23;;;;;;;15.39;31.31;95853.72;4950561;28;20031;-45
2021/04/18 09:22:11;;;;;;;13.77;12.68;;;;;;;15.99;31.94;95858.72;4957737;28;20059;-48
2021/04/18 09:24:40;;;;;;;14.40;13.05;;;;;;;15.60;31.35;95863.78;4949241;28;20036;-46
2021/04/18 09:27:11;;;;;;;13.23;12.13;;;;;;;15.80;30.84;95859.91;4953527;28;20035;-45
2021/04/18 09:29:52;;;;;;;14.35;13.10;;;;;;;15.95;31.55;95862.75;4955754;28;20027;-49
2021/04/18 09:32:23;;;;;;;15.13;13.80;;;;;;;15.84;31.94;95859.41;4953498;28;20045;-47
2021/04/18 09:34:48;;;;;;;14.52;13.23;;;;;;;16.12;30.71;95855.53;4951995;28;20045;-47
2021/04/18 09:37:21;;;;;;;15.27;13.65;;;;;;;16.12;32.23;95863.50;4956213;28;20224;-47
2021/04/18 09:39:54;;;;;;;13.90;12.80;;;;;;;16.10;30.76;95849.56;4956140;28;20118;-46
2021/04/18 09:42:20;;;;;;;14.48;13.18;;;;;;;16.41;30.58;95846.91;4951825;28;20462;-45
2021/04/18 09:44:47;;;;;;;14.90;13.60;;;;;;;15.97;30.37;95853.59;4954384;28;20023;-46
2021/04/18 09:47:20;;;;;;;14.52;13.25;;;;;;;15.45;31.37;95861.00;4955051;28;20043;-45
2021/04/18 09:49:53;;;;;;;14.48;12.63;;;;;;;15.82;30.89;95844.66;4953001;28;20124;-46
2021/04/18 09:52:29;;;;;;;14.15;12.82;;;;;;;15.57;30.50;95856.16;4956149;28;20050;-45
2021/04/18 09:55:14;;;;;;;14.75;13.45;;;;;;;15.95;30.80;95852.94;4955705;28;20563;-45
2021/04/18 09:57:56;;;;;;;15.02;13.73;;;;;;;14.64;31.79;95854.66;4955195;28;20100;-50
2021/04/18 10:00:31;;;;;;;14.43;13.13;;;;;;;15.02;32.27;95852.41;4956254;28;20027;-45
2021/04/18 10:03:09;;;;;;;14.68;13.45;;;;;;;14.85;32.57;95851.59;4955365;28;20054;-49
2021/04/18 10:05:55;;;;;;;14.25;13.05;;;;;;;15.54;31.89;95853.84;4958924;28;20039;-46
2021/04/18 10:08:32;;;;;;;13.55;12.55;;;;;;;14.88;31.29;95846.75;4958133;28;20030;-46
2021/04/18 10:10:58;;;;;;;14.60;13.40;;;;;;;15.24;31.65;95842.13;4957194;28;20081;-45
2021/04/18 10:13:54;;;;;;;14.77;13.60;;;;;;;14.84;32.72;95847.28;4959005;28;20106;-47
2021/04/18 10:16:34;;;;;;;14.52;13.32;;;;;;;14.78;31.89;95854.06;4960264;28;20042;-44
2021/04/18 10:19:17;;;;;;;14.20;13.07;;;;;;;14.55;33.10;95843.22;4954197;28;20201;-48
2021/04/18 10:21:45;;;;;;;15.35;13.95;;;;;;;14.50;32.10;95849.03;4959768;28;20049;-45
2021/04/18 10:24:50;;;;;;;14.15;12.95;;;;;;;13.95;33.57;95845.06;4957991;28;20035;-49
2021/04/18 10:27:30;;;;;;;14.48;13.30;;;;;;;13.59;33.86;95846.03;4935588;29;20047;-46
2021/04/18 10:29:55;;;;;;;13.45;12.43;;;;;;;14.03;33.65;95832.66;4936323;29;20028;-46
2021/04/18 10:32:23;;;;;;;14.52;13.32;;;;;;;15.55;32.13;95828.13;4945034;28;20587;-47
2021/04/18 10:34:52;;;;;;;14.07;12.98;;;;;;;16.16;31.32;95817.00;4954037;28;20039;-49
2021/04/18 10:37:19;;;;;;;14.35;12.93;;;;;;;16.43;29.40;95818.34;4953524;28;20031;-45
2021/04/18 10:39:45;;;;;;;14.20;12.90;;;;;;;15.56;29.89;95816.53;4957753;28;20039;-49
2021/04/18 10:42:11;;;;;;;15.05;13.75;;;;;;;14.51;32.88;95818.06;4955149;28;20082;-45
2021/04/18 10:44:38;;;;;;;13.68;12.57;;;;;;;14.90;32.19;95817.47;4958541;28;20023;-47
2021/04/18 10:47:06;;;;;;;14.30;13.30;;;;;;;14.51;32.57;95816.25;4958347;28;20035;-46
2021/04/18 10:49:32;;;;;;;14.13;12.95;;;;;;;13.87;33.80;95814.09;4955123;28;20520;-47
2021/04/18 10:51:58;;;;;;;14.73;13.32;;;;;;;13.49;32.84;95813.56;4958455;28;20050;-47
2021/04/18 10:54:24;;;;;;;14.57;13.10;;;;;;;14.46;33.05;95815.88;4958378;28;20028;-45
2021/04/18 10:56:51;;;;;;;14.70;12.77;;;;;;;14.71;32.98;95810.66;4953338;28;20078;-45
2021/04/18 10:59:18;;;;;;;14.15;12.75;;;;;;;14.94;30.66;95820.63;4957885;28;20047;-46
2021/04/18 11:01:44;;;;;;;13.77;12.68;;;;;;;14.09;33.20;95810.00;4954252;28;20028;-45
2021/04/18 11:04:10;;;;;;;13.57;12.18;;;;;;;13.85;34.42;95808.13;4955158;28;20023;-46
2021/04/18 11:06:36;;;;;;;12.55;11.55;;;;;;;13.95;33.16;95800.06;4954961;28;20116;-46
2021/04/18 11:09:03;;;;;;;12.75;11.75;;;;;;;14.00;32.45;95803.06;4957205;28;20023;-46
2021/04/18 11:11:30;;;;;;;13.38;12.27;;;;;;;13.43;34.61;95802.66;4955313;28;20086;-47
2021/04/18 11:13:56;;;;;;;13.25;11.68;;;;;;;13.39;34.11;95797.78;4957221;28;20026;-47
2021/04/18 11:16:21;;;;;;;13.10;11.95;;;;;;;13.84;32.79;95793.25;4955687;28;20053;-45
2021/04/18 11:18:47;;;;;;;13.27;12.30;;;;;;;13.98;32.20;95795.25;4952742;28;20365;-47
2021/04/18 11:21:13;;;;;;;27.75;24.85;;;;;;;14.01;35.64;95796.78;4954613;28;20019;-45
2021/04/18 11:23:40;;;;;;;12.70;11.70;;;;;;;14.74;32.39;95795.25;4952482;28;20059;-46
2021/04/18 11:26:06;;;;;;;12.50;11.50;;;;;;;14.85;31.67;95796.75;4957050;28;20483;-46